Time;durP1;ratioP1;P1;durP2;ratioP2;P2;SDS_P1;SDS_P2;PMS_P1;PMS_P2;Temp;Humidity;BMP_temperature;BMP_pressure;BME280_temperature;BME280_humidity;BME280_pressure;Samples;Min_cycle;Max_cycle;Signal;HPM_P1;HPM_P2
2021/12/10 00:00:24;;;;;;;;;;;;;;;;;;1904097;28;7023;-63
2021/12/10 00:01:24;;;;;;;;;;;;;;;;;;1905940;28;7005;-64
2021/12/10 00:02:22;;;;;;;;;;;;;;;;;;1905775;28;7120;-64
2021/12/10 00:03:25;;;;;;;;;;;;;;;;;;1904449;28;7013;-64
2021/12/10 00:04:29;;;;;;;;;;;;;;;;;;1898616;28;7175;-64
2021/12/10 00:05:33;;;;;;;;;;;;;;;;;;1897649;28;7006;-64
2021/12/10 00:06:36;;;;;;;;;;;;;;;;;;1898032;28;7009;-64
2021/12/10 00:07:34;;;;;;;;;;;;;;;;;;1898066;28;7054;-64
2021/12/10 00:08:33;;;;;;;;;;;;;;;;;;1899301;28;7042;-64
2021/12/10 00:09:34;;;;;;;;;;;;;;;;;;1905287;28;7307;-64
2021/12/10 00:10:34;;;;;;;;;;;;;;;;;;1905697;28;7028;-64
2021/12/10 00:11:41;;;;;;;;;;;;;;;;;;1903600;28;7100;-64
2021/12/10 00:12:45;;;;;;;;;;;;;;;;;;1906052;28;7089;-64
2021/12/10 00:13:45;;;;;;;;;;;;;;;;;;1905766;28;8032;-64
2021/12/10 00:14:42;;;;;;;;;;;;;;;;;;1905605;28;7097;-64
2021/12/10 00:15:40;;;;;;;;;;;;;;;;;;1902842;28;8032;-63
2021/12/10 00:16:39;;;;;;;;;;;;;;;;;;1904569;28;7158;-64
2021/12/10 00:17:37;;;;;;;;;;;;;;;;;;1905225;28;7093;-64
2021/12/10 00:18:37;;;;;;;;;;;;;;;;;;1904757;28;7005;-64
2021/12/10 00:19:42;;;;;;;;;;;;;;;;;;1905040;28;7092;-64
2021/12/10 00:20:40;;;;;;;;;;;;;;;;;;1898015;28;7105;-64
2021/12/10 00:21:39;;;;;;;;;;;;;;;;;;1902566;28;7014;-64
2021/12/10 00:22:45;;;;;;;;;;;;;;;;;;1905601;28;7092;-64
2021/12/10 00:23:46;;;;;;;;;;;;;;;;;;1905504;28;7349;-64
2021/12/10 00:24:45;;;;;;;;;;;;;;;;;;1902658;28;7351;-64
2021/12/10 00:25:47;;;;;;;;;;;;;;;;;;1904941;28;7014;-64
2021/12/10 00:26:45;;;;;;;;;;;;;;;;;;1904121;28;7042;-64
2021/12/10 00:27:42;;;;;;;;;;;;;;;;;;1905021;28;7096;-64
2021/12/10 00:28:40;;;;;;;;;;;;;;;;;;1904713;28;8032;-64
2021/12/10 00:29:42;;;;;;;;;;;;;;;;;;1905021;28;7253;-63
2021/12/10 00:30:55;;;;;;;;;;;;;;;;;;1905240;28;7092;-64
2021/12/10 00:32:01;;;;;;;;;;;;;;;;;;1905363;28;7005;-64
2021/12/10 00:33:08;;;;;;;;;;;;;;;;;;1905455;28;8106;-64
2021/12/10 00:34:32;;;;;;;;;;;;;;;;;;1901807;28;7134;-64
2021/12/10 00:35:32;;;;;;;;;;;;;;;;;;1895466;28;7002;-64
2021/12/10 00:36:30;;;;;;;;;;;;;;;;;;1898294;28;7093;-63
2021/12/10 00:37:28;;;;;;;;;;;;;;;;;;1898551;28;7153;-64
2021/12/10 00:38:26;;;;;;;;;;;;;;;;;;1897999;28;7138;-64
2021/12/10 00:39:26;;;;;;;;;;;;;;;;;;1899717;28;7009;-64
2021/12/10 00:40:26;;;;;;;;;;;;;;;;;;1905098;28;8046;-63
2021/12/10 00:41:24;;;;;;;;;;;;;;;;;;1896638;28;8018;-63
2021/12/10 00:42:24;;;;;;;;;;;;;;;;;;1897819;28;7109;-64
2021/12/10 00:43:22;;;;;;;;;;;;;;;;;;1897781;28;7014;-63
2021/12/10 00:44:20;;;;;;;;;;;;;;;;;;1897709;28;7022;-64
2021/12/10 00:45:18;;;;;;;;;;;;;;;;;;1897824;28;7009;-64
2021/12/10 00:46:16;;;;;;;;;;;;;;;;;;1898192;28;8254;-64
2021/12/10 00:47:14;;;;;;;;;;;;;;;;;;1898294;28;7010;-64
2021/12/10 00:48:11;;;;;;;;;;;;;;;;;;1897566;28;7002;-64
2021/12/10 00:49:09;;;;;;;;;;;;;;;;;;1898015;28;7101;-64
2021/12/10 00:50:09;;;;;;;;;;;;;;;;;;1896960;28;7006;-64
2021/12/10 00:51:08;;;;;;;;;;;;;;;;;;1897655;28;7005;-63
2021/12/10 00:52:08;;;;;;;;;;;;;;;;;;1896511;28;7025;-63
2021/12/10 00:53:05;;;;;;;;;;;;;;;;;;1897361;28;7316;-64
2021/12/10 00:54:04;;;;;;;;;;;;;;;;;;1902934;28;7017;-64
2021/12/10 00:55:03;;;;;;;;;;;;;;;;;;1906031;28;8043;-63
2021/12/10 00:56:01;;;;;;;;;;;;;;;;;;1905432;28;7141;-64
2021/12/10 00:56:58;;;;;;;;;;;;;;;;;;1904866;28;8657;-64
2021/12/10 00:57:57;;;;;;;;;;;;;;;;;;1905135;28;7062;-64
2021/12/10 00:58:55;;;;;;;;;;;;;;;;;;1905045;28;7025;-63
2021/12/10 00:59:52;;;;;;;;;;;;;;;;;;1905111;28;7033;-63
2021/12/10 01:00:53;;;;;;;;;;;;;;;;;;1905824;28;8095;-64
2021/12/10 01:01:51;;;;;;;;;;;;;;;;;;1905799;28;7311;-63
2021/12/10 01:02:49;;;;;;;;;;;;;;;;;;1905891;28;7296;-63
2021/12/10 01:03:49;;;;;;;;;;;;;;;;;;1899861;28;7009;-64
2021/12/10 01:04:49;;;;;;;;;;;;;;;;;;1902225;28;8336;-63
2021/12/10 01:05:49;;;;;;;;;;;;;;;;;;1905315;28;7013;-63
2021/12/10 01:06:48;;;;;;;;;;;;;;;;;;1905075;28;7046;-64
2021/12/10 01:07:46;;;;;;;;;;;;;;;;;;1899242;28;7316;-63
2021/12/10 01:08:46;;;;;;;;;;;;;;;;;;1897490;28;7101;-64
2021/12/10 01:09:46;;;;;;;;;;;;;;;;;;1904984;28;7223;-63
2021/12/10 01:10:51;;;;;;;;;;;;;;;;;;1904732;28;7025;-63
2021/12/10 01:11:51;;;;;;;;;;;;;;;;;;1897010;28;7369;-64
2021/12/10 01:12:51;;;;;;;;;;;;;;;;;;1898471;28;7045;-63
2021/12/10 01:13:53;;;;;;;;;;;;;;;;;;1897534;28;7124;-64
2021/12/10 01:15:18;;;;;;;;;;;;;;;;;;1905072;28;7224;-63
2021/12/10 01:23:55;;;;;;;;;;;;;;;;;;1896903;28;7113;-63
2021/12/10 01:25:07;;;;;;;;;;;;;;;;;;1899123;28;7177;-64
2021/12/10 01:27:13;;;;;;;;;;;;;;;;;;1904035;28;7096;-64
2021/12/10 01:28:10;;;;;;;;;;;;;;;;;;1904327;28;7089;-63
2021/12/10 01:29:09;;;;;;;;;;;;;;;;;;1904615;28;7005;-63
2021/12/10 01:30:06;;;;;;;;;;;;;;;;;;1905031;28;7092;-64
2021/12/10 01:31:04;;;;;;;;;;;;;;;;;;1904998;28;7088;-64
2021/12/10 01:32:05;;;;;;;;;;;;;;;;;;1905045;28;8020;-63
2021/12/10 01:33:09;;;;;;;;;;;;;;;;;;1905521;28;8080;-63
2021/12/10 01:34:09;;;;;;;;;;;;;;;;;;1904840;28;7113;-63
2021/12/10 01:35:09;;;;;;;;;;;;;;;;;;1905004;28;8414;-64
2021/12/10 01:36:08;;;;;;;;;;;;;;;;;;1906621;28;7030;-63
2021/12/10 01:37:05;;;;;;;;;;;;;;;;;;1901643;28;8036;-63
2021/12/10 01:38:04;;;;;;;;;;;;;;;;;;1899272;28;7006;-63
2021/12/10 01:39:06;;;;;;;;;;;;;;;;;;1899397;28;7034;-63
2021/12/10 01:40:06;;;;;;;;;;;;;;;;;;1906419;28;7451;-63
2021/12/10 01:41:07;;;;;;;;;;;;;;;;;;1906294;28;7680;-63
2021/12/10 01:42:16;;;;;;;;;;;;;;;;;;1906997;28;8050;-64
2021/12/10 01:43:22;;;;;;;;;;;;;;;;;;1906467;28;7014;-64
2021/12/10 01:44:28;;;;;;;;;;;;;;;;;;1906822;28;7156;-64
2021/12/10 01:45:28;;;;;;;;;;;;;;;;;;1907006;28;7009;-63
2021/12/10 01:46:27;;;;;;;;;;;;;;;;;;1907132;28;7097;-63
2021/12/10 01:47:30;;;;;;;;;;;;;;;;;;1906988;28;7641;-63
2021/12/10 01:48:32;;;;;;;;;;;;;;;;;;1906827;28;7013;-63
2021/12/10 01:49:29;;;;;;;;;;;;;;;;;;1906127;28;7042;-63
2021/12/10 01:50:28;;;;;;;;;;;;;;;;;;1906756;28;7009;-63
2021/12/10 01:51:29;;;;;;;;;;;;;;;;;;1906174;28;7151;-63
2021/12/10 01:52:27;;;;;;;;;;;;;;;;;;1906700;28;7013;-63
2021/12/10 01:53:26;;;;;;;;;;;;;;;;;;1906516;28;7041;-63
2021/12/10 01:54:27;;;;;;;;;;;;;;;;;;1906532;28;7096;-63
2021/12/10 01:55:27;;;;;;;;;;;;;;;;;;1907361;28;7046;-64
2021/12/10 01:56:28;;;;;;;;;;;;;;;;;;1906962;28;7270;-63
2021/12/10 01:57:27;;;;;;;;;;;;;;;;;;1906706;28;7032;-63
2021/12/10 01:58:26;;;;;;;;;;;;;;;;;;1898915;28;7092;-63
2021/12/10 01:59:26;;;;;;;;;;;;;;;;;;1899523;28;7005;-63
2021/12/10 02:00:27;;;;;;;;;;;;;;;;;;1899115;28;7006;-63
2021/12/10 02:01:31;;;;;;;;;;;;;;;;;;1899195;28;7038;-63
2021/12/10 02:02:34;;;;;;;;;;;;;;;;;;1899142;28;7002;-63
2021/12/10 02:03:32;;;;;;;;;;;;;;;;;;1902423;28;7050;-64
2021/12/10 02:04:32;;;;;;;;;;;;;;;;;;1897927;28;7038;-63
2021/12/10 02:05:29;;;;;;;;;;;;;;;;;;1892307;28;7006;-63
2021/12/10 02:06:26;;;;;;;;;;;;;;;;;;1898435;28;7006;-63
2021/12/10 02:07:26;;;;;;;;;;;;;;;;;;1898008;28;7025;-64
2021/12/10 02:08:23;;;;;;;;;;;;;;;;;;1898935;28;7042;-63
2021/12/10 02:09:22;;;;;;;;;;;;;;;;;;1900634;28;7389;-63
2021/12/10 02:10:21;;;;;;;;;;;;;;;;;;1898611;28;7093;-63
2021/12/10 02:11:19;;;;;;;;;;;;;;;;;;1892766;28;7439;-63
2021/12/10 02:12:18;;;;;;;;;;;;;;;;;;1897873;28;7093;-63
2021/12/10 02:13:16;;;;;;;;;;;;;;;;;;1899962;28;7005;-63
2021/12/10 02:14:14;;;;;;;;;;;;;;;;;;1899380;28;7005;-63
2021/12/10 02:15:13;;;;;;;;;;;;;;;;;;1898825;28;7277;-63
2021/12/10 02:16:11;;;;;;;;;;;;;;;;;;1898661;28;7088;-63
2021/12/10 02:17:08;;;;;;;;;;;;;;;;;;1898566;28;7006;-63
2021/12/10 02:18:08;;;;;;;;;;;;;;;;;;1898164;28;7013;-63
2021/12/10 02:19:07;;;;;;;;;;;;;;;;;;1894616;28;7148;-63
2021/12/10 02:20:08;;;;;;;;;;;;;;;;;;1898239;28;7113;-63
2021/12/10 02:21:05;;;;;;;;;;;;;;;;;;1891485;28;7092;-63
2021/12/10 02:22:04;;;;;;;;;;;;;;;;;;1890980;28;7035;-64
2021/12/10 02:23:05;;;;;;;;;;;;;;;;;;1898590;28;7025;-64
2021/12/10 02:24:04;;;;;;;;;;;;;;;;;;1899013;28;7222;-63
2021/12/10 02:25:02;;;;;;;;;;;;;;;;;;1898069;28;7092;-64
2021/12/10 02:26:01;;;;;;;;;;;;;;;;;;1905703;28;7157;-63
2021/12/10 02:27:01;;;;;;;;;;;;;;;;;;1905199;28;7046;-63
2021/12/10 02:27:59;;;;;;;;;;;;;;;;;;1905724;28;7116;-63
2021/12/10 02:28:58;;;;;;;;;;;;;;;;;;1906082;28;7331;-63
2021/12/10 02:29:55;;;;;;;;;;;;;;;;;;1898901;28;7013;-63
2021/12/10 02:30:54;;;;;;;;;;;;;;;;;;1899171;28;7092;-63
2021/12/10 02:31:53;;;;;;;;;;;;;;;;;;1898375;28;7361;-63
2021/12/10 02:32:51;;;;;;;;;;;;;;;;;;1898353;28;7137;-63
2021/12/10 02:33:48;;;;;;;;;;;;;;;;;;1898351;28;7093;-63
2021/12/10 02:34:49;;;;;;;;;;;;;;;;;;1897702;28;7002;-64
2021/12/10 02:35:47;;;;;;;;;;;;;;;;;;1899035;28;7343;-63
2021/12/10 02:36:44;;;;;;;;;;;;;;;;;;1904337;28;7046;-64
2021/12/10 02:37:44;;;;;;;;;;;;;;;;;;1898942;28;7001;-63
2021/12/10 02:38:46;;;;;;;;;;;;;;;;;;1898945;28;7097;-63
2021/12/10 02:39:43;;;;;;;;;;;;;;;;;;1898501;28;7010;-64
2021/12/10 02:40:41;;;;;;;;;;;;;;;;;;1899108;28;7308;-63
2021/12/10 02:41:39;;;;;;;;;;;;;;;;;;1900278;28;7010;-64
2021/12/10 02:42:38;;;;;;;;;;;;;;;;;;1906257;28;7018;-63
2021/12/10 02:43:36;;;;;;;;;;;;;;;;;;1904763;28;7014;-63
2021/12/10 02:44:34;;;;;;;;;;;;;;;;;;1901060;28;7006;-64
2021/12/10 02:45:31;;;;;;;;;;;;;;;;;;1906356;28;7009;-63
2021/12/10 02:46:29;;;;;;;;;;;;;;;;;;1905795;28;7038;-64
2021/12/10 02:47:26;;;;;;;;;;;;;;;;;;1905374;28;7010;-63
2021/12/10 02:48:25;;;;;;;;;;;;;;;;;;1906358;28;7288;-64
2021/12/10 02:49:22;;;;;;;;;;;;;;;;;;1905932;28;7005;-63
2021/12/10 02:50:22;;;;;;;;;;;;;;;;;;1905959;28;7010;-63
2021/12/10 02:51:19;;;;;;;;;;;;;;;;;;1906448;28;7018;-63
2021/12/10 02:52:19;;;;;;;;;;;;;;;;;;1906634;28;8071;-62
2021/12/10 02:53:23;;;;;;;;;;;;;;;;;;1906474;28;7311;-64
2021/12/10 02:54:31;;;;;;;;;;;;;;;;;;1898865;28;7105;-64
2021/12/10 02:55:30;;;;;;;;;;;;;;;;;;1898952;28;7097;-63
2021/12/10 02:56:27;;;;;;;;;;;;;;;;;;1890905;28;7038;-64
2021/12/10 02:57:25;;;;;;;;;;;;;;;;;;1891044;28;7002;-64
2021/12/10 02:58:24;;;;;;;;;;;;;;;;;;1897745;28;7006;-63
2021/12/10 02:59:21;;;;;;;;;;;;;;;;;;1898178;28;7200;-64
2021/12/10 03:00:22;;;;;;;;;;;;;;;;;;1898984;28;7009;-63
2021/12/10 03:01:20;;;;;;;;;;;;;;;;;;1898717;28;7110;-63
2021/12/10 03:02:21;;;;;;;;;;;;;;;;;;1899059;28;7009;-64
2021/12/10 03:03:19;;;;;;;;;;;;;;;;;;1898196;28;7192;-63
2021/12/10 03:04:16;;;;;;;;;;;;;;;;;;1902832;28;7113;-64
2021/12/10 03:05:14;;;;;;;;;;;;;;;;;;1906047;28;7176;-64
2021/12/10 03:06:13;;;;;;;;;;;;;;;;;;1906570;28;7088;-64
2021/12/10 03:07:14;;;;;;;;;;;;;;;;;;1897746;28;7033;-64
2021/12/10 03:08:11;;;;;;;;;;;;;;;;;;1898966;28;7005;-64
2021/12/10 03:09:09;;;;;;;;;;;;;;;;;;1898599;28;9101;-63
2021/12/10 03:10:13;;;;;;;;;;;;;;;;;;1899393;28;7379;-63
2021/12/10 03:11:12;;;;;;;;;;;;;;;;;;1896992;28;7375;-64
2021/12/10 03:12:11;;;;;;;;;;;;;;;;;;1898698;28;7113;-64
2021/12/10 03:13:09;;;;;;;;;;;;;;;;;;1904108;28;8357;-64
2021/12/10 03:14:11;;;;;;;;;;;;;;;;;;1905729;28;7044;-63
2021/12/10 03:15:10;;;;;;;;;;;;;;;;;;1903827;28;7017;-63
2021/12/10 03:16:07;;;;;;;;;;;;;;;;;;1897879;28;7096;-63
2021/12/10 03:17:08;;;;;;;;;;;;;;;;;;1898095;28;7096;-63
2021/12/10 03:18:08;;;;;;;;;;;;;;;;;;1898322;28;7009;-63
2021/12/10 03:19:05;;;;;;;;;;;;;;;;;;1898300;28;7145;-64
2021/12/10 03:20:06;;;;;;;;;;;;;;;;;;1892092;28;7886;-63
2021/12/10 03:21:04;;;;;;;;;;;;;;;;;;1904936;28;7006;-63
2021/12/10 03:22:03;;;;;;;;;;;;;;;;;;1901915;28;9012;-63
2021/12/10 03:23:01;;;;;;;;;;;;;;;;;;1897922;28;7117;-64
2021/12/10 03:23:59;;;;;;;;;;;;;;;;;;1898013;28;7050;-64
2021/12/10 03:24:58;;;;;;;;;;;;;;;;;;1897783;28;7121;-63
2021/12/10 03:25:55;;;;;;;;;;;;;;;;;;1898420;28;7092;-63
2021/12/10 03:26:54;;;;;;;;;;;;;;;;;;1898612;28;7033;-63
2021/12/10 03:27:52;;;;;;;;;;;;;;;;;;1898095;28;7128;-63
2021/12/10 03:28:52;;;;;;;;;;;;;;;;;;1898518;28;7096;-63
2021/12/10 03:29:50;;;;;;;;;;;;;;;;;;1898261;28;7100;-64
2021/12/10 03:30:51;;;;;;;;;;;;;;;;;;1898544;28;7100;-64
2021/12/10 03:31:50;;;;;;;;;;;;;;;;;;1898711;28;7046;-64
2021/12/10 03:32:47;;;;;;;;;;;;;;;;;;1899321;28;7009;-63
2021/12/10 03:33:46;;;;;;;;;;;;;;;;;;1903176;28;7100;-64
2021/12/10 03:34:44;;;;;;;;;;;;;;;;;;1906055;28;7097;-63
2021/12/10 03:35:44;;;;;;;;;;;;;;;;;;1905676;28;7005;-63
2021/12/10 03:36:45;;;;;;;;;;;;;;;;;;1904506;28;7038;-63
2021/12/10 03:37:45;;;;;;;;;;;;;;;;;;1898627;28;7014;-64
2021/12/10 03:38:43;;;;;;;;;;;;;;;;;;1898393;28;7100;-64
2021/12/10 03:39:40;;;;;;;;;;;;;;;;;;1898247;28;7005;-63
2021/12/10 03:40:39;;;;;;;;;;;;;;;;;;1898818;28;7092;-63
2021/12/10 03:41:36;;;;;;;;;;;;;;;;;;1898307;28;7013;-63
2021/12/10 03:42:34;;;;;;;;;;;;;;;;;;1898814;28;7013;-63
2021/12/10 03:43:32;;;;;;;;;;;;;;;;;;1898220;28;7009;-63
2021/12/10 03:44:30;;;;;;;;;;;;;;;;;;1898116;28;7113;-63
2021/12/10 03:45:31;;;;;;;;;;;;;;;;;;1898613;28;7013;-63
2021/12/10 03:46:28;;;;;;;;;;;;;;;;;;1903393;28;7046;-63
2021/12/10 03:47:26;;;;;;;;;;;;;;;;;;1905995;28;8234;-63
2021/12/10 03:48:27;;;;;;;;;;;;;;;;;;1905769;28;7105;-63
2021/12/10 03:49:25;;;;;;;;;;;;;;;;;;1905821;28;7320;-63
2021/12/10 03:50:25;;;;;;;;;;;;;;;;;;1906525;28;7376;-63
2021/12/10 03:51:25;;;;;;;;;;;;;;;;;;1906311;28;8044;-64
2021/12/10 03:52:22;;;;;;;;;;;;;;;;;;1905542;28;7151;-64
2021/12/10 03:53:20;;;;;;;;;;;;;;;;;;1906067;28;7025;-64
2021/12/10 03:54:18;;;;;;;;;;;;;;;;;;1905883;28;7009;-63
2021/12/10 03:55:16;;;;;;;;;;;;;;;;;;1905911;28;7009;-63
2021/12/10 03:56:16;;;;;;;;;;;;;;;;;;1898692;28;7009;-63
2021/12/10 03:57:14;;;;;;;;;;;;;;;;;;1898609;28;7031;-64
2021/12/10 03:58:12;;;;;;;;;;;;;;;;;;1897474;28;7039;-63
2021/12/10 03:59:12;;;;;;;;;;;;;;;;;;1898462;28;7006;-64
2021/12/10 04:00:10;;;;;;;;;;;;;;;;;;1898306;28;7034;-63
2021/12/10 04:01:09;;;;;;;;;;;;;;;;;;1898292;28;7093;-63
2021/12/10 04:02:08;;;;;;;;;;;;;;;;;;1898311;28;7042;-63
2021/12/10 04:03:07;;;;;;;;;;;;;;;;;;1898508;28;7037;-63
2021/12/10 04:04:07;;;;;;;;;;;;;;;;;;1900167;28;7010;-63
2021/12/10 04:05:05;;;;;;;;;;;;;;;;;;1897476;28;7054;-63
2021/12/10 04:06:03;;;;;;;;;;;;;;;;;;1898867;28;7009;-64
2021/12/10 04:07:06;;;;;;;;;;;;;;;;;;1898562;28;7094;-63
2021/12/10 04:08:03;;;;;;;;;;;;;;;;;;1898789;28;7078;-63
2021/12/10 04:09:02;;;;;;;;;;;;;;;;;;1897110;28;8078;-63
2021/12/10 04:09:59;;;;;;;;;;;;;;;;;;1898509;28;7328;-64
2021/12/10 04:10:57;;;;;;;;;;;;;;;;;;1897823;28;7014;-63
2021/12/10 04:11:55;;;;;;;;;;;;;;;;;;1898792;28;8055;-63
2021/12/10 04:12:55;;;;;;;;;;;;;;;;;;1898357;28;7022;-63
2021/12/10 04:13:53;;;;;;;;;;;;;;;;;;1899045;28;7093;-63
2021/12/10 04:14:52;;;;;;;;;;;;;;;;;;1898747;28;7046;-63
2021/12/10 04:15:49;;;;;;;;;;;;;;;;;;1897610;28;7034;-63
2021/12/10 04:16:54;;;;;;;;;;;;;;;;;;1897532;28;7092;-64
2021/12/10 04:17:53;;;;;;;;;;;;;;;;;;1897540;28;7145;-63
2021/12/10 04:18:52;;;;;;;;;;;;;;;;;;1897565;28;7144;-63
2021/12/10 04:19:50;;;;;;;;;;;;;;;;;;1897694;28;7093;-64
2021/12/10 04:20:48;;;;;;;;;;;;;;;;;;1889694;28;8012;-63
2021/12/10 04:21:46;;;;;;;;;;;;;;;;;;1894588;28;7427;-64
2021/12/10 04:22:46;;;;;;;;;;;;;;;;;;1904596;28;7013;-64
2021/12/10 04:23:44;;;;;;;;;;;;;;;;;;1905070;28;7142;-64
2021/12/10 04:24:42;;;;;;;;;;;;;;;;;;1904922;28;7153;-63
2021/12/10 04:25:41;;;;;;;;;;;;;;;;;;1904573;28;7013;-63
2021/12/10 04:26:38;;;;;;;;;;;;;;;;;;1905097;28;7009;-64
2021/12/10 04:27:36;;;;;;;;;;;;;;;;;;1905068;28;8130;-63
2021/12/10 04:28:34;;;;;;;;;;;;;;;;;;1904811;28;8056;-64
2021/12/10 04:29:32;;;;;;;;;;;;;;;;;;1905564;28;7026;-63
2021/12/10 04:30:35;;;;;;;;;;;;;;;;;;1904847;28;7025;-64
2021/12/10 04:31:33;;;;;;;;;;;;;;;;;;1905358;28;7124;-64
2021/12/10 04:32:31;;;;;;;;;;;;;;;;;;1905467;28;7104;-64
2021/12/10 04:33:29;;;;;;;;;;;;;;;;;;1905878;28;7033;-64
2021/12/10 04:34:26;;;;;;;;;;;;;;;;;;1904451;28;7097;-64
2021/12/10 04:35:24;;;;;;;;;;;;;;;;;;1905047;28;7129;-63
2021/12/10 04:36:22;;;;;;;;;;;;;;;;;;1905276;28;7093;-64
2021/12/10 04:37:21;;;;;;;;;;;;;;;;;;1901178;28;7100;-64
2021/12/10 04:38:19;;;;;;;;;;;;;;;;;;1897167;28;7074;-64
2021/12/10 04:39:16;;;;;;;;;;;;;;;;;;1898058;28;7092;-64
2021/12/10 04:40:17;;;;;;;;;;;;;;;;;;1897900;28;7133;-63
2021/12/10 04:41:15;;;;;;;;;;;;;;;;;;1897795;28;7124;-64
2021/12/10 04:42:13;;;;;;;;;;;;;;;;;;1897978;28;7013;-64
2021/12/10 04:43:10;;;;;;;;;;;;;;;;;;1898344;28;7165;-63
2021/12/10 04:44:08;;;;;;;;;;;;;;;;;;1897401;28;7192;-64
2021/12/10 04:45:06;;;;;;;;;;;;;;;;;;1898241;28;7096;-64
2021/12/10 04:46:04;;;;;;;;;;;;;;;;;;1903074;28;7097;-64
2021/12/10 04:47:03;;;;;;;;;;;;;;;;;;1905710;28;7025;-64
2021/12/10 04:48:00;;;;;;;;;;;;;;;;;;1905659;28;7046;-64
2021/12/10 04:49:00;;;;;;;;;;;;;;;;;;1898258;28;8035;-63
2021/12/10 04:49:57;;;;;;;;;;;;;;;;;;1898432;28;7315;-64
2021/12/10 04:50:56;;;;;;;;;;;;;;;;;;1898056;28;7096;-64
2021/12/10 04:51:54;;;;;;;;;;;;;;;;;;1890581;28;7050;-64
2021/12/10 04:52:52;;;;;;;;;;;;;;;;;;1897906;28;7057;-64
2021/12/10 04:53:50;;;;;;;;;;;;;;;;;;1904585;28;7046;-64
2021/12/10 04:54:48;;;;;;;;;;;;;;;;;;1905120;28;7026;-64
2021/12/10 04:55:45;;;;;;;;;;;;;;;;;;1897567;28;7001;-64
2021/12/10 04:56:43;;;;;;;;;;;;;;;;;;1890134;28;7050;-63
2021/12/10 04:57:42;;;;;;;;;;;;;;;;;;1901914;28;7042;-63
2021/12/10 04:58:39;;;;;;;;;;;;;;;;;;1905120;28;7009;-64
2021/12/10 04:59:38;;;;;;;;;;;;;;;;;;1898383;28;7042;-64
2021/12/10 05:00:43;;;;;;;;;;;;;;;;;;1898118;28;7144;-64
2021/12/10 05:01:40;;;;;;;;;;;;;;;;;;1898257;28;7037;-64
2021/12/10 05:02:38;;;;;;;;;;;;;;;;;;1897847;28;7018;-63
2021/12/10 05:03:36;;;;;;;;;;;;;;;;;;1899431;28;7312;-64
2021/12/10 05:04:34;;;;;;;;;;;;;;;;;;1902607;28;7104;-63
2021/12/10 05:05:33;;;;;;;;;;;;;;;;;;1905342;28;7046;-64
2021/12/10 05:06:30;;;;;;;;;;;;;;;;;;1905085;28;7058;-64
2021/12/10 05:07:30;;;;;;;;;;;;;;;;;;1904797;28;8313;-63
2021/12/10 05:08:28;;;;;;;;;;;;;;;;;;1904297;28;7112;-64
2021/12/10 05:09:26;;;;;;;;;;;;;;;;;;1905456;28;7050;-63
2021/12/10 05:10:24;;;;;;;;;;;;;;;;;;1905110;28;7081;-64
2021/12/10 05:11:22;;;;;;;;;;;;;;;;;;1903650;28;8083;-64
2021/12/10 05:12:19;;;;;;;;;;;;;;;;;;1905056;28;7029;-63
2021/12/10 05:13:17;;;;;;;;;;;;;;;;;;1905020;28;7069;-64
2021/12/10 05:14:15;;;;;;;;;;;;;;;;;;1905271;28;7096;-64
2021/12/10 05:15:16;;;;;;;;;;;;;;;;;;1905875;28;8048;-64
2021/12/10 05:16:15;;;;;;;;;;;;;;;;;;1898402;28;7010;-63
2021/12/10 05:17:13;;;;;;;;;;;;;;;;;;1902626;28;7014;-64
2021/12/10 05:18:13;;;;;;;;;;;;;;;;;;1901896;28;7033;-64
2021/12/10 05:19:12;;;;;;;;;;;;;;;;;;1902928;28;7289;-64
2021/12/10 05:20:13;;;;;;;;;;;;;;;;;;1904505;28;7356;-64
2021/12/10 05:21:13;;;;;;;;;;;;;;;;;;1904601;28;7109;-63
2021/12/10 05:22:11;;;;;;;;;;;;;;;;;;1904286;28;7010;-64
2021/12/10 05:23:09;;;;;;;;;;;;;;;;;;1905022;28;7096;-64
2021/12/10 05:24:07;;;;;;;;;;;;;;;;;;1905112;28;7312;-64
2021/12/10 05:25:05;;;;;;;;;;;;;;;;;;1897751;28;7188;-64
2021/12/10 05:26:05;;;;;;;;;;;;;;;;;;1894895;28;7013;-64
2021/12/10 05:27:04;;;;;;;;;;;;;;;;;;1899121;28;7101;-64
2021/12/10 05:28:01;;;;;;;;;;;;;;;;;;1890189;28;7092;-64
2021/12/10 05:28:59;;;;;;;;;;;;;;;;;;1890480;28;7304;-64
2021/12/10 05:29:56;;;;;;;;;;;;;;;;;;1903545;28;7034;-63
2021/12/10 05:30:55;;;;;;;;;;;;;;;;;;1899031;28;7018;-64
2021/12/10 05:31:56;;;;;;;;;;;;;;;;;;1905841;28;7096;-63
2021/12/10 05:32:54;;;;;;;;;;;;;;;;;;1905402;28;7005;-64
2021/12/10 05:33:51;;;;;;;;;;;;;;;;;;1904307;28;7002;-63
2021/12/10 05:34:49;;;;;;;;;;;;;;;;;;1904349;28;7104;-64
2021/12/10 05:35:47;;;;;;;;;;;;;;;;;;1905223;28;7154;-64
2021/12/10 05:36:45;;;;;;;;;;;;;;;;;;1903201;28;7038;-64
2021/12/10 05:37:43;;;;;;;;;;;;;;;;;;1898024;28;7014;-63
2021/12/10 05:38:40;;;;;;;;;;;;;;;;;;1898227;28;7161;-64
2021/12/10 05:39:38;;;;;;;;;;;;;;;;;;1901334;28;7002;-64
2021/12/10 05:40:36;;;;;;;;;;;;;;;;;;1905545;28;7109;-64
2021/12/10 05:41:33;;;;;;;;;;;;;;;;;;1905708;28;7006;-64
2021/12/10 05:42:31;;;;;;;;;;;;;;;;;;1905744;28;7109;-64
2021/12/10 05:43:28;;;;;;;;;;;;;;;;;;1905617;28;7093;-64
2021/12/10 05:44:27;;;;;;;;;;;;;;;;;;1905877;28;7096;-64
2021/12/10 05:45:25;;;;;;;;;;;;;;;;;;1905848;28;7038;-64
2021/12/10 05:46:22;;;;;;;;;;;;;;;;;;1901491;28;7046;-64
2021/12/10 05:47:20;;;;;;;;;;;;;;;;;;1898235;28;7021;-64
2021/12/10 05:48:18;;;;;;;;;;;;;;;;;;1900303;28;7392;-64
2021/12/10 05:49:16;;;;;;;;;;;;;;;;;;1904889;28;7046;-64
2021/12/10 05:50:17;;;;;;;;;;;;;;;;;;1905025;28;7117;-65
2021/12/10 05:51:15;;;;;;;;;;;;;;;;;;1898135;28;7033;-64
2021/12/10 05:52:14;;;;;;;;;;;;;;;;;;1898258;28;7046;-64
2021/12/10 05:53:13;;;;;;;;;;;;;;;;;;1898433;28;8100;-64
2021/12/10 05:54:11;;;;;;;;;;;;;;;;;;1897946;28;7021;-64
2021/12/10 05:55:09;;;;;;;;;;;;;;;;;;1898001;28;7093;-64
2021/12/10 05:56:06;;;;;;;;;;;;;;;;;;1897841;28;7045;-64
2021/12/10 05:57:04;;;;;;;;;;;;;;;;;;1890462;28;8094;-64
2021/12/10 05:58:03;;;;;;;;;;;;;;;;;;1890253;28;7089;-63
2021/12/10 05:59:00;;;;;;;;;;;;;;;;;;1890045;28;7097;-64
2021/12/10 05:59:57;;;;;;;;;;;;;;;;;;1890640;28;8010;-64
2021/12/10 06:01:02;;;;;;;;;;;;;;;;;;1904716;28;7117;-64
2021/12/10 06:02:00;;;;;;;;;;;;;;;;;;1904977;28;7132;-63
2021/12/10 06:02:58;;;;;;;;;;;;;;;;;;1905164;28;7109;-64
2021/12/10 06:03:56;;;;;;;;;;;;;;;;;;1902342;28;7010;-64
2021/12/10 06:04:53;;;;;;;;;;;;;;;;;;1900233;28;7046;-63
2021/12/10 06:05:51;;;;;;;;;;;;;;;;;;1901084;28;7005;-63
2021/12/10 06:06:49;;;;;;;;;;;;;;;;;;1903232;28;7116;-64
2021/12/10 06:07:47;;;;;;;;;;;;;;;;;;1905539;28;7045;-63
2021/12/10 06:08:44;;;;;;;;;;;;;;;;;;1905116;28;7006;-63
2021/12/10 06:09:42;;;;;;;;;;;;;;;;;;1903001;28;7129;-63
2021/12/10 06:10:40;;;;;;;;;;;;;;;;;;1901461;28;7134;-64
2021/12/10 06:11:37;;;;;;;;;;;;;;;;;;1905160;28;7096;-63
2021/12/10 06:12:35;;;;;;;;;;;;;;;;;;1905379;28;7038;-63
2021/12/10 06:13:33;;;;;;;;;;;;;;;;;;1897811;28;7013;-64
2021/12/10 06:14:31;;;;;;;;;;;;;;;;;;1896833;28;7101;-64
2021/12/10 06:15:29;;;;;;;;;;;;;;;;;;1897280;28;7006;-63
2021/12/10 06:16:27;;;;;;;;;;;;;;;;;;1897607;28;8063;-64
2021/12/10 06:17:27;;;;;;;;;;;;;;;;;;1897581;28;8019;-64
2021/12/10 06:18:24;;;;;;;;;;;;;;;;;;1904474;28;7005;-64
2021/12/10 06:19:23;;;;;;;;;;;;;;;;;;1904950;28;7109;-64
2021/12/10 06:20:24;;;;;;;;;;;;;;;;;;1896659;28;7001;-64
2021/12/10 06:21:21;;;;;;;;;;;;;;;;;;1897019;28;7050;-64
2021/12/10 06:22:19;;;;;;;;;;;;;;;;;;1906167;28;7017;-64
2021/12/10 06:23:17;;;;;;;;;;;;;;;;;;1906853;28;7084;-64
2021/12/10 06:24:15;;;;;;;;;;;;;;;;;;1899794;28;8016;-64
2021/12/10 06:25:12;;;;;;;;;;;;;;;;;;1898816;28;7029;-64
2021/12/10 06:26:10;;;;;;;;;;;;;;;;;;1898729;28;7005;-64
2021/12/10 06:27:08;;;;;;;;;;;;;;;;;;1898661;28;7266;-64
2021/12/10 06:28:06;;;;;;;;;;;;;;;;;;1898646;28;7916;-64
2021/12/10 06:29:04;;;;;;;;;;;;;;;;;;1898649;28;7006;-64
2021/12/10 06:30:03;;;;;;;;;;;;;;;;;;1898868;28;7006;-63
2021/12/10 06:31:01;;;;;;;;;;;;;;;;;;1899126;28;7093;-63
2021/12/10 06:31:58;;;;;;;;;;;;;;;;;;1899222;28;8590;-64
2021/12/10 06:32:58;;;;;;;;;;;;;;;;;;1899362;28;7920;-64
2021/12/10 06:33:56;;;;;;;;;;;;;;;;;;1898150;28;8032;-63
2021/12/10 06:34:54;;;;;;;;;;;;;;;;;;1898260;28;7121;-64
2021/12/10 06:35:52;;;;;;;;;;;;;;;;;;1899210;28;7439;-64
2021/12/10 06:36:50;;;;;;;;;;;;;;;;;;1902296;28;7013;-63
2021/12/10 06:37:47;;;;;;;;;;;;;;;;;;1906988;28;7025;-64
2021/12/10 06:38:46;;;;;;;;;;;;;;;;;;1906911;28;7340;-64
2021/12/10 06:39:44;;;;;;;;;;;;;;;;;;1906613;28;7323;-63
2021/12/10 06:40:42;;;;;;;;;;;;;;;;;;1906812;28;7100;-64
2021/12/10 06:41:40;;;;;;;;;;;;;;;;;;1906846;28;7383;-64
2021/12/10 06:42:38;;;;;;;;;;;;;;;;;;1906564;28;7096;-63
2021/12/10 06:43:36;;;;;;;;;;;;;;;;;;1906315;28;7010;-63
2021/12/10 06:44:33;;;;;;;;;;;;;;;;;;1907024;28;7009;-63
2021/12/10 06:45:32;;;;;;;;;;;;;;;;;;1906396;28;7010;-63
2021/12/10 06:46:31;;;;;;;;;;;;;;;;;;1906666;28;9069;-64
2021/12/10 06:47:28;;;;;;;;;;;;;;;;;;1906869;28;7045;-63
2021/12/10 06:48:27;;;;;;;;;;;;;;;;;;1906431;28;7050;-63
2021/12/10 06:49:25;;;;;;;;;;;;;;;;;;1906287;28;8128;-64
2021/12/10 06:50:24;;;;;;;;;;;;;;;;;;1906569;28;7100;-63
2021/12/10 06:51:22;;;;;;;;;;;;;;;;;;1906873;28;7391;-64
2021/12/10 06:52:19;;;;;;;;;;;;;;;;;;1906792;28;7131;-64
2021/12/10 06:53:19;;;;;;;;;;;;;;;;;;1906574;28;7096;-64
2021/12/10 06:54:17;;;;;;;;;;;;;;;;;;1906272;28;7014;-63
2021/12/10 06:55:15;;;;;;;;;;;;;;;;;;1906691;28;7375;-64
2021/12/10 06:56:13;;;;;;;;;;;;;;;;;;1905971;28;7029;-64
2021/12/10 06:57:11;;;;;;;;;;;;;;;;;;1906051;28;8020;-64
2021/12/10 06:58:09;;;;;;;;;;;;;;;;;;1906285;28;7013;-63
2021/12/10 06:59:07;;;;;;;;;;;;;;;;;;1907105;28;8158;-64